sensor_id;sensor_type;location;lat;lon;timestamp;P1;durP1;ratioP1;P2;durP2;ratioP2
75169;SDS011;63749;49.186;9.222;2023-07-13T00:00:10;5.27;;;1.60;;
75169;SDS011;63749;49.186;9.222;2023-07-13T00:02:36;3.22;;;1.73;;
75169;SDS011;63749;49.186;9.222;2023-07-13T00:05:02;4.00;;;1.67;;
75169;SDS011;63749;49.186;9.222;2023-07-13T00:07:28;2.10;;;1.50;;
75169;SDS011;63749;49.186;9.222;2023-07-13T00:09:53;3.10;;;1.50;;
75169;SDS011;63749;49.186;9.222;2023-07-13T00:12:23;3.83;;;1.60;;
75169;SDS011;63749;49.186;9.222;2023-07-13T00:14:50;3.88;;;1.70;;
75169;SDS011;63749;49.186;9.222;2023-07-13T00:17:15;3.37;;;1.73;;
75169;SDS011;63749;49.186;9.222;2023-07-13T00:19:41;4.27;;;1.70;;
75169;SDS011;63749;49.186;9.222;2023-07-13T00:22:06;3.97;;;1.60;;
75169;SDS011;63749;49.186;9.222;2023-07-13T00:24:31;4.57;;;1.80;;
75169;SDS011;63749;49.186;9.222;2023-07-13T00:26:57;3.10;;;1.70;;
75169;SDS011;63749;49.186;9.222;2023-07-13T00:29:22;3.53;;;1.70;;
75169;SDS011;63749;49.186;9.222;2023-07-13T00:31:47;6.00;;;1.70;;
75169;SDS011;63749;49.186;9.222;2023-07-13T00:34:13;4.63;;;1.60;;
75169;SDS011;63749;49.186;9.222;2023-07-13T00:36:38;3.17;;;1.70;;
75169;SDS011;63749;49.186;9.222;2023-07-13T00:39:04;5.03;;;1.73;;
75169;SDS011;63749;49.186;9.222;2023-07-13T00:41:29;4.40;;;1.90;;
75169;SDS011;63749;49.186;9.222;2023-07-13T00:43:55;3.33;;;1.73;;
75169;SDS011;63749;49.186;9.222;2023-07-13T00:46:25;3.60;;;1.60;;
75169;SDS011;63749;49.186;9.222;2023-07-13T00:48:55;2.63;;;1.70;;
75169;SDS011;63749;49.186;9.222;2023-07-13T00:51:28;3.47;;;1.80;;
75169;SDS011;63749;49.186;9.222;2023-07-13T00:53:58;4.82;;;1.63;;
75169;SDS011;63749;49.186;9.222;2023-07-13T00:56:25;5.13;;;1.60;;
75169;SDS011;63749;49.186;9.222;2023-07-13T00:58:51;2.67;;;1.50;;
75169;SDS011;63749;49.186;9.222;2023-07-13T01:01:18;3.78;;;1.52;;
75169;SDS011;63749;49.186;9.222;2023-07-13T01:03:43;4.47;;;1.80;;
75169;SDS011;63749;49.186;9.222;2023-07-13T01:06:08;3.43;;;1.63;;
75169;SDS011;63749;49.186;9.222;2023-07-13T01:08:34;5.90;;;1.70;;
75169;SDS011;63749;49.186;9.222;2023-07-13T01:10:59;4.05;;;1.60;;
75169;SDS011;63749;49.186;9.222;2023-07-13T01:13:25;2.87;;;1.70;;
75169;SDS011;63749;49.186;9.222;2023-07-13T01:15:51;5.90;;;1.73;;
75169;SDS011;63749;49.186;9.222;2023-07-13T01:18:25;4.75;;;1.80;;
75169;SDS011;63749;49.186;9.222;2023-07-13T01:20:59;4.00;;;1.60;;
75169;SDS011;63749;49.186;9.222;2023-07-13T01:23:27;6.23;;;1.60;;
75169;SDS011;63749;49.186;9.222;2023-07-13T01:25:53;2.88;;;1.40;;
75169;SDS011;63749;49.186;9.222;2023-07-13T01:28:20;5.38;;;1.60;;
75169;SDS011;63749;49.186;9.222;2023-07-13T01:30:47;3.13;;;1.75;;
75169;SDS011;63749;49.186;9.222;2023-07-13T01:33:13;3.17;;;1.70;;
75169;SDS011;63749;49.186;9.222;2023-07-13T01:35:40;3.05;;;1.50;;
75169;SDS011;63749;49.186;9.222;2023-07-13T01:38:06;2.90;;;1.60;;
75169;SDS011;63749;49.186;9.222;2023-07-13T01:40:33;3.38;;;1.70;;
75169;SDS011;63749;49.186;9.222;2023-07-13T01:43:00;4.40;;;1.70;;
75169;SDS011;63749;49.186;9.222;2023-07-13T01:45:26;4.18;;;1.60;;
75169;SDS011;63749;49.186;9.222;2023-07-13T01:47:51;3.33;;;1.60;;
75169;SDS011;63749;49.186;9.222;2023-07-13T01:50:16;4.90;;;1.90;;
75169;SDS011;63749;49.186;9.222;2023-07-13T01:52:43;4.43;;;1.80;;
75169;SDS011;63749;49.186;9.222;2023-07-13T01:55:08;4.17;;;1.90;;
75169;SDS011;63749;49.186;9.222;2023-07-13T01:57:34;5.82;;;1.88;;
75169;SDS011;63749;49.186;9.222;2023-07-13T02:00:00;3.30;;;1.80;;
75169;SDS011;63749;49.186;9.222;2023-07-13T02:02:29;5.97;;;1.77;;
75169;SDS011;63749;49.186;9.222;2023-07-13T02:04:55;4.87;;;1.70;;
75169;SDS011;63749;49.186;9.222;2023-07-13T02:07:21;3.65;;;1.80;;
75169;SDS011;63749;49.186;9.222;2023-07-13T02:09:46;4.73;;;1.77;;
75169;SDS011;63749;49.186;9.222;2023-07-13T02:12:12;3.22;;;1.50;;
75169;SDS011;63749;49.186;9.222;2023-07-13T02:14:37;6.50;;;1.77;;
75169;SDS011;63749;49.186;9.222;2023-07-13T02:17:03;7.20;;;1.83;;
75169;SDS011;63749;49.186;9.222;2023-07-13T02:19:29;2.45;;;1.60;;
75169;SDS011;63749;49.186;9.222;2023-07-13T02:21:54;3.13;;;1.80;;
75169;SDS011;63749;49.186;9.222;2023-07-13T02:24:19;4.00;;;1.90;;
75169;SDS011;63749;49.186;9.222;2023-07-13T02:26:46;4.38;;;1.80;;
75169;SDS011;63749;49.186;9.222;2023-07-13T02:29:11;4.53;;;1.85;;
75169;SDS011;63749;49.186;9.222;2023-07-13T02:31:38;3.17;;;1.80;;
75169;SDS011;63749;49.186;9.222;2023-07-13T02:34:04;6.75;;;1.77;;
75169;SDS011;63749;49.186;9.222;2023-07-13T02:36:30;4.83;;;1.70;;
75169;SDS011;63749;49.186;9.222;2023-07-13T02:38:56;4.80;;;1.98;;
75169;SDS011;63749;49.186;9.222;2023-07-13T02:41:21;4.13;;;1.80;;
75169;SDS011;63749;49.186;9.222;2023-07-13T02:43:48;4.15;;;2.00;;
75169;SDS011;63749;49.186;9.222;2023-07-13T02:46:14;3.70;;;2.03;;
75169;SDS011;63749;49.186;9.222;2023-07-13T02:48:39;5.23;;;1.97;;
75169;SDS011;63749;49.186;9.222;2023-07-13T02:51:05;3.50;;;1.70;;
75169;SDS011;63749;49.186;9.222;2023-07-13T02:53:31;5.00;;;1.90;;
75169;SDS011;63749;49.186;9.222;2023-07-13T02:55:56;4.73;;;2.00;;
75169;SDS011;63749;49.186;9.222;2023-07-13T02:58:22;5.35;;;2.03;;
75169;SDS011;63749;49.186;9.222;2023-07-13T03:00:47;6.00;;;2.07;;
75169;SDS011;63749;49.186;9.222;2023-07-13T03:03:15;4.75;;;1.98;;
75169;SDS011;63749;49.186;9.222;2023-07-13T03:05:41;4.70;;;2.05;;
75169;SDS011;63749;49.186;9.222;2023-07-13T03:08:09;4.33;;;2.03;;
75169;SDS011;63749;49.186;9.222;2023-07-13T03:10:35;4.28;;;2.13;;
75169;SDS011;63749;49.186;9.222;2023-07-13T03:13:01;3.63;;;2.00;;
75169;SDS011;63749;49.186;9.222;2023-07-13T03:15:27;7.13;;;2.03;;
75169;SDS011;63749;49.186;9.222;2023-07-13T03:17:52;3.97;;;1.90;;
75169;SDS011;63749;49.186;9.222;2023-07-13T03:20:18;3.78;;;1.85;;
75169;SDS011;63749;49.186;9.222;2023-07-13T03:22:43;3.73;;;1.90;;
75169;SDS011;63749;49.186;9.222;2023-07-13T03:25:09;4.30;;;2.10;;
75169;SDS011;63749;49.186;9.222;2023-07-13T03:27:34;4.47;;;2.10;;
75169;SDS011;63749;49.186;9.222;2023-07-13T03:29:59;3.07;;;2.00;;
75169;SDS011;63749;49.186;9.222;2023-07-13T03:32:25;5.57;;;2.07;;
75169;SDS011;63749;49.186;9.222;2023-07-13T03:34:50;3.67;;;2.00;;
75169;SDS011;63749;49.186;9.222;2023-07-13T03:37:15;4.73;;;1.83;;
75169;SDS011;63749;49.186;9.222;2023-07-13T03:39:41;7.05;;;2.03;;
75169;SDS011;63749;49.186;9.222;2023-07-13T03:42:07;4.47;;;2.40;;
75169;SDS011;63749;49.186;9.222;2023-07-13T03:44:32;4.57;;;2.00;;
75169;SDS011;63749;49.186;9.222;2023-07-13T03:46:58;4.20;;;2.40;;
75169;SDS011;63749;49.186;9.222;2023-07-13T03:49:23;6.97;;;2.20;;
75169;SDS011;63749;49.186;9.222;2023-07-13T03:51:49;3.67;;;2.10;;
75169;SDS011;63749;49.186;9.222;2023-07-13T03:54:14;6.10;;;2.30;;
75169;SDS011;63749;49.186;9.222;2023-07-13T03:56:39;4.47;;;2.10;;
75169;SDS011;63749;49.186;9.222;2023-07-13T03:59:05;5.27;;;2.50;;
75169;SDS011;63749;49.186;9.222;2023-07-13T04:01:30;5.83;;;2.40;;
75169;SDS011;63749;49.186;9.222;2023-07-13T04:03:56;5.38;;;2.50;;
75169;SDS011;63749;49.186;9.222;2023-07-13T04:06:26;4.87;;;2.30;;
75169;SDS011;63749;49.186;9.222;2023-07-13T04:08:55;4.22;;;2.50;;
75169;SDS011;63749;49.186;9.222;2023-07-13T04:11:23;10.43;;;2.80;;
75169;SDS011;63749;49.186;9.222;2023-07-13T04:13:50;5.50;;;2.70;;
75169;SDS011;63749;49.186;9.222;2023-07-13T04:16:16;4.80;;;2.58;;
75169;SDS011;63749;49.186;9.222;2023-07-13T04:18:43;6.80;;;3.00;;
75169;SDS011;63749;49.186;9.222;2023-07-13T04:21:10;6.28;;;2.80;;
75169;SDS011;63749;49.186;9.222;2023-07-13T04:23:36;6.88;;;2.88;;
75169;SDS011;63749;49.186;9.222;2023-07-13T04:26:01;5.75;;;2.80;;
75169;SDS011;63749;49.186;9.222;2023-07-13T04:28:27;10.93;;;2.70;;
75169;SDS011;63749;49.186;9.222;2023-07-13T04:30:52;9.27;;;2.60;;
75169;SDS011;63749;49.186;9.222;2023-07-13T04:33:18;6.03;;;2.20;;
75169;SDS011;63749;49.186;9.222;2023-07-13T04:35:47;5.77;;;2.10;;
75169;SDS011;63749;49.186;9.222;2023-07-13T04:38:19;5.90;;;2.28;;
75169;SDS011;63749;49.186;9.222;2023-07-13T04:40:45;9.38;;;2.15;;
75169;SDS011;63749;49.186;9.222;2023-07-13T04:43:10;6.23;;;2.20;;
75169;SDS011;63749;49.186;9.222;2023-07-13T04:45:36;7.72;;;2.30;;
75169;SDS011;63749;49.186;9.222;2023-07-13T04:48:02;6.90;;;2.60;;
75169;SDS011;63749;49.186;9.222;2023-07-13T04:50:27;5.17;;;2.40;;
75169;SDS011;63749;49.186;9.222;2023-07-13T04:52:52;3.87;;;2.33;;
75169;SDS011;63749;49.186;9.222;2023-07-13T04:55:19;7.38;;;2.70;;
75169;SDS011;63749;49.186;9.222;2023-07-13T04:57:45;14.07;;;2.83;;
75169;SDS011;63749;49.186;9.222;2023-07-13T05:00:12;10.82;;;3.15;;
75169;SDS011;63749;49.186;9.222;2023-07-13T05:02:38;6.03;;;3.00;;
75169;SDS011;63749;49.186;9.222;2023-07-13T05:05:04;8.80;;;3.30;;
75169;SDS011;63749;49.186;9.222;2023-07-13T05:07:31;6.78;;;2.80;;
75169;SDS011;63749;49.186;9.222;2023-07-13T05:09:58;6.43;;;2.40;;
75169;SDS011;63749;49.186;9.222;2023-07-13T05:12:24;6.15;;;2.42;;
75169;SDS011;63749;49.186;9.222;2023-07-13T05:14:50;4.60;;;2.60;;
75169;SDS011;63749;49.186;9.222;2023-07-13T05:17:15;7.25;;;2.40;;
75169;SDS011;63749;49.186;9.222;2023-07-13T05:19:41;4.17;;;2.30;;
75169;SDS011;63749;49.186;9.222;2023-07-13T05:22:06;6.40;;;2.33;;
75169;SDS011;63749;49.186;9.222;2023-07-13T05:24:31;5.45;;;2.80;;
75169;SDS011;63749;49.186;9.222;2023-07-13T05:26:57;5.77;;;2.33;;
75169;SDS011;63749;49.186;9.222;2023-07-13T05:29:22;6.80;;;2.60;;
75169;SDS011;63749;49.186;9.222;2023-07-13T05:31:48;6.33;;;2.67;;
75169;SDS011;63749;49.186;9.222;2023-07-13T05:34:14;6.75;;;2.97;;
75169;SDS011;63749;49.186;9.222;2023-07-13T05:36:40;5.77;;;2.67;;
75169;SDS011;63749;49.186;9.222;2023-07-13T05:39:05;7.63;;;2.80;;
75169;SDS011;63749;49.186;9.222;2023-07-13T05:41:31;6.03;;;2.60;;
75169;SDS011;63749;49.186;9.222;2023-07-13T05:43:57;6.90;;;2.78;;
75169;SDS011;63749;49.186;9.222;2023-07-13T05:46:22;5.57;;;2.60;;
75169;SDS011;63749;49.186;9.222;2023-07-13T05:48:47;8.03;;;3.00;;
75169;SDS011;63749;49.186;9.222;2023-07-13T05:51:13;5.07;;;2.80;;
75169;SDS011;63749;49.186;9.222;2023-07-13T05:53:38;4.03;;;2.67;;
75169;SDS011;63749;49.186;9.222;2023-07-13T05:56:04;5.97;;;2.90;;
75169;SDS011;63749;49.186;9.222;2023-07-13T05:58:29;7.67;;;3.13;;
75169;SDS011;63749;49.186;9.222;2023-07-13T06:01:03;13.98;;;2.80;;
75169;SDS011;63749;49.186;9.222;2023-07-13T06:03:30;7.80;;;2.53;;
75169;SDS011;63749;49.186;9.222;2023-07-13T06:05:55;5.63;;;2.87;;
75169;SDS011;63749;49.186;9.222;2023-07-13T06:08:21;8.20;;;2.57;;
75169;SDS011;63749;49.186;9.222;2023-07-13T06:10:46;8.90;;;2.20;;
75169;SDS011;63749;49.186;9.222;2023-07-13T06:13:12;3.77;;;2.30;;
75169;SDS011;63749;49.186;9.222;2023-07-13T06:15:37;11.67;;;3.17;;
75169;SDS011;63749;49.186;9.222;2023-07-13T06:18:02;10.23;;;2.70;;
75169;SDS011;63749;49.186;9.222;2023-07-13T06:20:28;10.87;;;2.90;;
75169;SDS011;63749;49.186;9.222;2023-07-13T06:22:54;6.85;;;2.50;;
75169;SDS011;63749;49.186;9.222;2023-07-13T06:25:19;5.00;;;2.53;;
75169;SDS011;63749;49.186;9.222;2023-07-13T06:27:44;4.87;;;2.60;;
75169;SDS011;63749;49.186;9.222;2023-07-13T06:30:10;7.32;;;2.60;;
75169;SDS011;63749;49.186;9.222;2023-07-13T06:32:36;7.23;;;2.50;;
75169;SDS011;63749;49.186;9.222;2023-07-13T06:35:01;6.37;;;2.60;;
75169;SDS011;63749;49.186;9.222;2023-07-13T06:37:27;6.57;;;2.53;;
75169;SDS011;63749;49.186;9.222;2023-07-13T06:39:52;6.60;;;2.60;;
75169;SDS011;63749;49.186;9.222;2023-07-13T06:42:17;4.90;;;2.70;;
75169;SDS011;63749;49.186;9.222;2023-07-13T06:44:43;7.03;;;2.57;;
75169;SDS011;63749;49.186;9.222;2023-07-13T06:47:08;8.23;;;2.83;;
75169;SDS011;63749;49.186;9.222;2023-07-13T06:49:33;8.10;;;2.80;;
75169;SDS011;63749;49.186;9.222;2023-07-13T06:51:59;7.43;;;2.90;;
75169;SDS011;63749;49.186;9.222;2023-07-13T06:54:24;6.17;;;3.00;;
75169;SDS011;63749;49.186;9.222;2023-07-13T06:56:50;4.97;;;2.80;;
75169;SDS011;63749;49.186;9.222;2023-07-13T06:59:15;8.23;;;3.30;;
75169;SDS011;63749;49.186;9.222;2023-07-13T07:01:40;7.05;;;2.80;;
75169;SDS011;63749;49.186;9.222;2023-07-13T07:04:05;7.73;;;2.93;;
75169;SDS011;63749;49.186;9.222;2023-07-13T07:06:31;5.07;;;2.60;;
75169;SDS011;63749;49.186;9.222;2023-07-13T07:08:56;5.53;;;2.73;;
75169;SDS011;63749;49.186;9.222;2023-07-13T07:11:23;6.53;;;2.73;;
75169;SDS011;63749;49.186;9.222;2023-07-13T07:13:50;6.60;;;3.30;;
75169;SDS011;63749;49.186;9.222;2023-07-13T07:16:17;6.85;;;2.40;;
75169;SDS011;63749;49.186;9.222;2023-07-13T07:18:43;4.93;;;2.60;;
75169;SDS011;63749;49.186;9.222;2023-07-13T07:21:08;4.60;;;2.23;;
75169;SDS011;63749;49.186;9.222;2023-07-13T07:23:34;4.30;;;2.33;;
75169;SDS011;63749;49.186;9.222;2023-07-13T07:25:59;6.53;;;2.70;;
75169;SDS011;63749;49.186;9.222;2023-07-13T07:28:25;7.13;;;2.60;;
75169;SDS011;63749;49.186;9.222;2023-07-13T07:30:53;6.40;;;2.60;;
75169;SDS011;63749;49.186;9.222;2023-07-13T07:33:20;4.85;;;2.33;;
75169;SDS011;63749;49.186;9.222;2023-07-13T07:35:45;4.97;;;2.30;;
75169;SDS011;63749;49.186;9.222;2023-07-13T07:38:10;5.10;;;2.40;;
75169;SDS011;63749;49.186;9.222;2023-07-13T07:40:36;5.93;;;2.50;;
75169;SDS011;63749;49.186;9.222;2023-07-13T07:43:02;6.03;;;2.20;;
75169;SDS011;63749;49.186;9.222;2023-07-13T07:45:28;7.30;;;2.33;;
75169;SDS011;63749;49.186;9.222;2023-07-13T07:47:53;3.93;;;2.20;;
75169;SDS011;63749;49.186;9.222;2023-07-13T07:50:20;5.53;;;2.67;;
75169;SDS011;63749;49.186;9.222;2023-07-13T07:52:45;6.80;;;2.45;;
75169;SDS011;63749;49.186;9.222;2023-07-13T07:55:10;7.47;;;2.30;;
75169;SDS011;63749;49.186;9.222;2023-07-13T07:57:36;7.50;;;2.40;;
75169;SDS011;63749;49.186;9.222;2023-07-13T08:00:01;7.33;;;2.67;;
75169;SDS011;63749;49.186;9.222;2023-07-13T08:02:26;8.27;;;2.35;;
75169;SDS011;63749;49.186;9.222;2023-07-13T08:04:52;5.60;;;2.00;;
75169;SDS011;63749;49.186;9.222;2023-07-13T08:07:18;6.25;;;2.65;;
75169;SDS011;63749;49.186;9.222;2023-07-13T08:09:43;3.77;;;1.90;;
75169;SDS011;63749;49.186;9.222;2023-07-13T08:12:09;4.47;;;2.03;;
75169;SDS011;63749;49.186;9.222;2023-07-13T08:14:34;7.10;;;2.00;;
75169;SDS011;63749;49.186;9.222;2023-07-13T08:17:00;5.20;;;2.00;;
75169;SDS011;63749;49.186;9.222;2023-07-13T08:19:25;4.70;;;2.00;;
75169;SDS011;63749;49.186;9.222;2023-07-13T08:21:50;4.07;;;2.00;;
75169;SDS011;63749;49.186;9.222;2023-07-13T08:24:16;4.50;;;1.90;;
75169;SDS011;63749;49.186;9.222;2023-07-13T08:26:43;6.53;;;1.92;;
75169;SDS011;63749;49.186;9.222;2023-07-13T08:29:10;3.67;;;1.90;;
75169;SDS011;63749;49.186;9.222;2023-07-13T08:31:35;3.93;;;1.70;;
75169;SDS011;63749;49.186;9.222;2023-07-13T08:34:00;8.90;;;1.80;;
75169;SDS011;63749;49.186;9.222;2023-07-13T08:36:26;5.33;;;1.80;;
75169;SDS011;63749;49.186;9.222;2023-07-13T08:38:52;6.47;;;1.70;;
75169;SDS011;63749;49.186;9.222;2023-07-13T08:41:18;4.57;;;1.80;;
75169;SDS011;63749;49.186;9.222;2023-07-13T08:43:55;4.57;;;1.80;;
75169;SDS011;63749;49.186;9.222;2023-07-13T08:46:36;4.88;;;1.80;;
75169;SDS011;63749;49.186;9.222;2023-07-13T08:49:06;4.28;;;1.70;;
75169;SDS011;63749;49.186;9.222;2023-07-13T08:51:39;3.13;;;1.73;;
75169;SDS011;63749;49.186;9.222;2023-07-13T08:54:10;3.03;;;1.63;;
75169;SDS011;63749;49.186;9.222;2023-07-13T08:56:49;3.72;;;1.67;;
75169;SDS011;63749;49.186;9.222;2023-07-13T08:59:18;4.40;;;1.60;;
75169;SDS011;63749;49.186;9.222;2023-07-13T09:04:50;3.47;;;1.85;;
75169;SDS011;63749;49.186;9.222;2023-07-13T09:10:28;4.85;;;2.00;;
75169;SDS011;63749;49.186;9.222;2023-07-13T09:15:47;3.60;;;1.73;;
75169;SDS011;63749;49.186;9.222;2023-07-13T09:18:26;4.43;;;1.45;;
75169;SDS011;63749;49.186;9.222;2023-07-13T09:26:55;2.95;;;1.52;;
75169;SDS011;63749;49.186;9.222;2023-07-13T09:29:27;2.53;;;1.50;;
75169;SDS011;63749;49.186;9.222;2023-07-13T09:31:55;4.97;;;1.80;;
75169;SDS011;63749;49.186;9.222;2023-07-13T09:34:23;5.47;;;1.87;;
75169;SDS011;63749;49.186;9.222;2023-07-13T09:36:50;5.22;;;1.90;;
75169;SDS011;63749;49.186;9.222;2023-07-13T09:39:33;3.90;;;1.80;;
75169;SDS011;63749;49.186;9.222;2023-07-13T09:44:38;7.43;;;2.33;;
75169;SDS011;63749;49.186;9.222;2023-07-13T09:47:17;7.63;;;1.70;;
75169;SDS011;63749;49.186;9.222;2023-07-13T09:50:01;3.67;;;1.70;;
75169;SDS011;63749;49.186;9.222;2023-07-13T09:52:38;6.33;;;1.77;;
75169;SDS011;63749;49.186;9.222;2023-07-13T09:55:15;5.03;;;1.85;;
75169;SDS011;63749;49.186;9.222;2023-07-13T09:57:55;7.95;;;1.83;;
75169;SDS011;63749;49.186;9.222;2023-07-13T10:00:30;3.00;;;1.67;;
75169;SDS011;63749;49.186;9.222;2023-07-13T10:03:38;4.60;;;1.70;;
75169;SDS011;63749;49.186;9.222;2023-07-13T10:05:50;3.65;;;1.70;;
75169;SDS011;63749;49.186;9.222;2023-07-13T10:08:17;4.97;;;2.20;;
75169;SDS011;63749;49.186;9.222;2023-07-13T10:10:44;8.23;;;2.22;;
75169;SDS011;63749;49.186;9.222;2023-07-13T10:13:24;7.18;;;1.80;;
75169;SDS011;63749;49.186;9.222;2023-07-13T10:15:53;7.23;;;1.80;;
75169;SDS011;63749;49.186;9.222;2023-07-13T10:18:19;2.80;;;1.70;;
75169;SDS011;63749;49.186;9.222;2023-07-13T10:20:46;5.93;;;1.98;;
75169;SDS011;63749;49.186;9.222;2023-07-13T10:23:13;5.53;;;1.70;;
75169;SDS011;63749;49.186;9.222;2023-07-13T10:25:43;5.47;;;1.95;;
75169;SDS011;63749;49.186;9.222;2023-07-13T10:28:20;4.22;;;2.10;;
75169;SDS011;63749;49.186;9.222;2023-07-13T10:31:00;5.10;;;1.90;;
75169;SDS011;63749;49.186;9.222;2023-07-13T10:33:27;5.65;;;1.80;;
75169;SDS011;63749;49.186;9.222;2023-07-13T10:35:55;4.70;;;2.00;;
75169;SDS011;63749;49.186;9.222;2023-07-13T10:38:34;7.07;;;2.10;;
75169;SDS011;63749;49.186;9.222;2023-07-13T10:41:03;7.10;;;2.00;;
75169;SDS011;63749;49.186;9.222;2023-07-13T10:43:33;6.17;;;1.53;;
75169;SDS011;63749;49.186;9.222;2023-07-13T10:46:02;3.55;;;1.77;;
75169;SDS011;63749;49.186;9.222;2023-07-13T10:48:30;2.67;;;1.70;;
75169;SDS011;63749;49.186;9.222;2023-07-13T10:50:59;3.33;;;1.90;;
75169;SDS011;63749;49.186;9.222;2023-07-13T10:53:30;6.30;;;1.80;;
75169;SDS011;63749;49.186;9.222;2023-07-13T10:56:00;6.17;;;1.90;;
75169;SDS011;63749;49.186;9.222;2023-07-13T11:01:04;5.45;;;1.77;;
75169;SDS011;63749;49.186;9.222;2023-07-13T11:06:09;4.65;;;1.85;;
75169;SDS011;63749;49.186;9.222;2023-07-13T11:08:39;5.57;;;2.10;;
75169;SDS011;63749;49.186;9.222;2023-07-13T11:18:52;4.33;;;2.00;;
75169;SDS011;63749;49.186;9.222;2023-07-13T11:21:26;4.78;;;1.77;;
75169;SDS011;63749;49.186;9.222;2023-07-13T11:23:54;3.40;;;1.85;;
75169;SDS011;63749;49.186;9.222;2023-07-13T11:26:50;4.63;;;2.00;;
75169;SDS011;63749;49.186;9.222;2023-07-13T11:29:33;4.28;;;2.00;;
75169;SDS011;63749;49.186;9.222;2023-07-13T11:32:23;4.40;;;2.10;;
75169;SDS011;63749;49.186;9.222;2023-07-13T11:34:51;4.30;;;2.05;;
75169;SDS011;63749;49.186;9.222;2023-07-13T11:37:18;5.93;;;2.50;;
75169;SDS011;63749;49.186;9.222;2023-07-13T11:39:45;3.73;;;2.10;;
75169;SDS011;63749;49.186;9.222;2023-07-13T11:42:13;4.43;;;1.88;;
75169;SDS011;63749;49.186;9.222;2023-07-13T11:44:42;4.90;;;1.98;;
75169;SDS011;63749;49.186;9.222;2023-07-13T11:47:11;6.88;;;2.05;;
75169;SDS011;63749;49.186;9.222;2023-07-13T11:49:43;5.07;;;2.00;;
75169;SDS011;63749;49.186;9.222;2023-07-13T11:52:16;4.07;;;1.90;;
75169;SDS011;63749;49.186;9.222;2023-07-13T11:54:48;9.60;;;2.28;;
75169;SDS011;63749;49.186;9.222;2023-07-13T11:57:30;4.10;;;2.10;;
75169;SDS011;63749;49.186;9.222;2023-07-13T11:59:59;3.65;;;2.17;;
75169;SDS011;63749;49.186;9.222;2023-07-13T12:02:29;5.35;;;1.92;;
75169;SDS011;63749;49.186;9.222;2023-07-13T12:04:54;5.93;;;1.73;;
75169;SDS011;63749;49.186;9.222;2023-07-13T12:07:20;2.55;;;1.88;;
75169;SDS011;63749;49.186;9.222;2023-07-13T12:09:46;4.30;;;2.20;;
75169;SDS011;63749;49.186;9.222;2023-07-13T12:12:12;4.83;;;2.13;;
75169;SDS011;63749;49.186;9.222;2023-07-13T12:14:39;5.63;;;2.08;;
75169;SDS011;63749;49.186;9.222;2023-07-13T12:17:09;7.32;;;2.05;;
75169;SDS011;63749;49.186;9.222;2023-07-13T12:19:37;7.22;;;2.28;;
75169;SDS011;63749;49.186;9.222;2023-07-13T12:22:03;4.50;;;2.13;;
75169;SDS011;63749;49.186;9.222;2023-07-13T12:24:29;3.50;;;2.20;;
75169;SDS011;63749;49.186;9.222;2023-07-13T12:27:04;3.53;;;2.00;;
75169;SDS011;63749;49.186;9.222;2023-07-13T12:29:31;4.18;;;2.38;;
75169;SDS011;63749;49.186;9.222;2023-07-13T12:31:58;5.63;;;2.22;;
75169;SDS011;63749;49.186;9.222;2023-07-13T12:34:24;3.45;;;2.30;;
75169;SDS011;63749;49.186;9.222;2023-07-13T12:36:52;4.57;;;2.00;;
75169;SDS011;63749;49.186;9.222;2023-07-13T12:39:25;5.60;;;2.13;;
75169;SDS011;63749;49.186;9.222;2023-07-13T12:45:00;4.93;;;2.70;;
75169;SDS011;63749;49.186;9.222;2023-07-13T12:47:27;4.38;;;2.70;;
75169;SDS011;63749;49.186;9.222;2023-07-13T12:49:54;5.43;;;2.87;;
75169;SDS011;63749;49.186;9.222;2023-07-13T12:52:31;6.07;;;3.00;;
75169;SDS011;63749;49.186;9.222;2023-07-13T12:55:01;3.90;;;2.13;;
75169;SDS011;63749;49.186;9.222;2023-07-13T12:57:30;8.05;;;3.13;;
75169;SDS011;63749;49.186;9.222;2023-07-13T12:59:55;9.20;;;3.10;;
75169;SDS011;63749;49.186;9.222;2023-07-13T13:02:30;5.27;;;2.97;;
75169;SDS011;63749;49.186;9.222;2023-07-13T13:04:59;4.10;;;3.00;;
75169;SDS011;63749;49.186;9.222;2023-07-13T13:07:25;5.43;;;3.15;;
75169;SDS011;63749;49.186;9.222;2023-07-13T13:09:51;8.80;;;2.60;;
75169;SDS011;63749;49.186;9.222;2023-07-13T13:12:18;5.60;;;2.00;;
75169;SDS011;63749;49.186;9.222;2023-07-13T13:14:44;6.37;;;2.60;;
75169;SDS011;63749;49.186;9.222;2023-07-13T13:17:20;5.25;;;2.80;;
75169;SDS011;63749;49.186;9.222;2023-07-13T13:19:52;5.35;;;2.47;;
75169;SDS011;63749;49.186;9.222;2023-07-13T13:22:19;6.00;;;2.90;;
75169;SDS011;63749;49.186;9.222;2023-07-13T13:24:44;5.13;;;3.20;;
75169;SDS011;63749;49.186;9.222;2023-07-13T13:27:22;5.80;;;2.20;;
75169;SDS011;63749;49.186;9.222;2023-07-13T13:29:49;5.07;;;3.00;;
75169;SDS011;63749;49.186;9.222;2023-07-13T13:32:17;5.38;;;3.13;;
75169;SDS011;63749;49.186;9.222;2023-07-13T13:34:43;8.50;;;3.20;;
75169;SDS011;63749;49.186;9.222;2023-07-13T13:37:22;9.17;;;2.40;;
75169;SDS011;63749;49.186;9.222;2023-07-13T13:39:48;9.30;;;2.40;;
75169;SDS011;63749;49.186;9.222;2023-07-13T13:42:14;5.95;;;2.20;;
75169;SDS011;63749;49.186;9.222;2023-07-13T13:44:40;6.93;;;2.80;;
75169;SDS011;63749;49.186;9.222;2023-07-13T13:50:16;6.07;;;3.03;;
75169;SDS011;63749;49.186;9.222;2023-07-13T13:52:45;4.57;;;1.80;;
75169;SDS011;63749;49.186;9.222;2023-07-13T13:55:14;4.10;;;1.90;;
75169;SDS011;63749;49.186;9.222;2023-07-13T13:57:40;3.33;;;1.97;;
75169;SDS011;63749;49.186;9.222;2023-07-13T14:00:06;4.32;;;2.28;;
75169;SDS011;63749;49.186;9.222;2023-07-13T14:02:33;4.00;;;2.10;;
75169;SDS011;63749;49.186;9.222;2023-07-13T14:05:00;4.88;;;2.63;;
75169;SDS011;63749;49.186;9.222;2023-07-13T14:07:27;9.27;;;3.13;;
75169;SDS011;63749;49.186;9.222;2023-07-13T14:09:55;6.00;;;3.03;;
75169;SDS011;63749;49.186;9.222;2023-07-13T14:12:22;4.10;;;2.10;;
75169;SDS011;63749;49.186;9.222;2023-07-13T14:14:49;3.63;;;3.08;;
75169;SDS011;63749;49.186;9.222;2023-07-13T14:17:19;6.10;;;3.23;;
75169;SDS011;63749;49.186;9.222;2023-07-13T14:19:47;5.82;;;3.13;;
75169;SDS011;63749;49.186;9.222;2023-07-13T14:22:16;4.85;;;3.20;;
75169;SDS011;63749;49.186;9.222;2023-07-13T14:24:45;6.28;;;3.30;;
75169;SDS011;63749;49.186;9.222;2023-07-13T14:27:12;8.90;;;3.80;;
75169;SDS011;63749;49.186;9.222;2023-07-13T14:29:37;5.05;;;3.40;;
75169;SDS011;63749;49.186;9.222;2023-07-13T14:32:03;4.10;;;3.63;;
75169;SDS011;63749;49.186;9.222;2023-07-13T14:34:30;5.72;;;2.40;;
75169;SDS011;63749;49.186;9.222;2023-07-13T14:36:55;4.53;;;2.10;;
75169;SDS011;63749;49.186;9.222;2023-07-13T14:39:23;5.17;;;3.13;;
75169;SDS011;63749;49.186;9.222;2023-07-13T14:41:50;5.57;;;3.65;;
75169;SDS011;63749;49.186;9.222;2023-07-13T14:44:20;5.97;;;3.60;;
75169;SDS011;63749;49.186;9.222;2023-07-13T14:46:48;6.05;;;3.33;;
75169;SDS011;63749;49.186;9.222;2023-07-13T14:52:02;4.00;;;3.20;;
75169;SDS011;63749;49.186;9.222;2023-07-13T14:54:35;3.88;;;3.40;;
75169;SDS011;63749;49.186;9.222;2023-07-13T14:57:05;5.32;;;3.30;;
75169;SDS011;63749;49.186;9.222;2023-07-13T14:59:34;6.65;;;3.40;;
75169;SDS011;63749;49.186;9.222;2023-07-13T15:01:59;5.43;;;3.60;;
75169;SDS011;63749;49.186;9.222;2023-07-13T15:04:25;5.23;;;3.80;;
75169;SDS011;63749;49.186;9.222;2023-07-13T15:06:57;4.10;;;3.63;;
75169;SDS011;63749;49.186;9.222;2023-07-13T15:09:24;6.88;;;3.83;;
75169;SDS011;63749;49.186;9.222;2023-07-13T15:11:56;5.10;;;3.40;;
75169;SDS011;63749;49.186;9.222;2023-07-13T15:14:22;4.90;;;3.00;;
75169;SDS011;63749;49.186;9.222;2023-07-13T15:16:50;3.77;;;2.10;;
75169;SDS011;63749;49.186;9.222;2023-07-13T15:19:18;5.57;;;3.58;;
75169;SDS011;63749;49.186;9.222;2023-07-13T15:21:44;3.67;;;3.30;;
75169;SDS011;63749;49.186;9.222;2023-07-13T15:24:10;4.97;;;3.50;;
75169;SDS011;63749;49.186;9.222;2023-07-13T15:26:36;5.47;;;3.42;;
75169;SDS011;63749;49.186;9.222;2023-07-13T15:29:01;5.50;;;3.80;;